createdAt,value
2019-01-31T00:00:59.423Z,0.29
2019-01-31T00:02:00.390Z,0.24
2019-01-31T00:03:01.357Z,0.3
2019-01-31T00:04:01.802Z,0.26
2019-01-31T00:05:03.335Z,0.29
2019-01-31T00:06:03.466Z,0.23
2019-01-31T00:07:04.983Z,0.3
2019-01-31T00:08:05.114Z,0.27
2019-01-31T00:09:05.527Z,0.26
2019-01-31T00:10:05.915Z,0.29
2019-01-31T00:11:06.657Z,0.3
2019-01-31T00:12:07.341Z,0.31
2019-01-31T00:13:08.038Z,0.26
2019-01-31T00:14:08.446Z,0.31
2019-01-31T00:15:09.128Z,0.34
2019-01-31T00:16:09.817Z,0.27
2019-01-31T00:17:10.505Z,0.26
2019-01-31T00:18:10.468Z,0.3
2019-01-31T00:19:11.603Z,0.26
2019-01-31T00:20:13.003Z,0.2
2019-01-31T00:21:14.433Z,0.29
2019-01-31T00:22:15.397Z,0.24
2019-01-31T00:23:15.369Z,0.26
2019-01-31T00:24:15.859Z,0.18
2019-01-31T00:25:16.265Z,0.19
2019-01-31T00:26:17.237Z,0.19
2019-01-31T00:27:17.397Z,0.19
2019-01-31T00:28:18.803Z,0.19
2019-01-31T00:29:19.782Z,0.18
2019-01-31T00:30:21.461Z,0.11
2019-01-31T00:31:21.884Z,0.06
2019-01-31T00:32:22.571Z,0.01
2019-01-31T00:33:22.699Z,0.01
2019-01-31T00:34:23.110Z,0.01
2019-01-31T00:35:24.337Z,-0.03
2019-01-31T00:36:24.471Z,-0.13
2019-01-31T00:37:25.181Z,0.02
2019-01-31T00:38:25.593Z,0.05
2019-01-31T00:39:26.316Z,0.05
2019-01-31T00:40:26.999Z,-0.15
2019-01-31T00:41:27.687Z,-0.12
2019-01-31T00:42:28.096Z,-0.06
2019-01-31T00:43:28.606Z,-0.1
2019-01-31T00:44:30.016Z,-0.21
2019-01-31T00:45:30.424Z,-0.2
2019-01-31T00:46:31.831Z,-0.27
2019-01-31T00:47:32.797Z,-0.21
2019-01-31T00:48:33.486Z,-0.24
2019-01-31T00:49:34.173Z,-0.21
2019-01-31T00:50:35.004Z,-0.24
2019-01-31T00:51:36.081Z,-0.2
2019-01-31T00:52:36.768Z,-0.17
2019-01-31T00:53:37.179Z,-0.1
2019-01-31T00:54:38.252Z,-0.15
2019-01-31T00:55:39.217Z,-0.23
2019-01-31T00:56:39.216Z,-0.2
2019-01-31T00:57:39.904Z,-0.24
2019-01-31T00:58:41.046Z,-0.27
2019-01-31T00:59:41.734Z,-0.21
2019-01-31T01:00:42.022Z,-0.28
2019-01-31T01:01:42.716Z,-0.24
2019-01-31T01:02:43.849Z,-0.27
2019-01-31T01:03:44.265Z,-0.38
2019-01-31T01:04:45.436Z,-0.38
2019-01-31T01:05:45.864Z,-0.44
2019-01-31T01:06:46.992Z,-0.38
2019-01-31T01:07:48.126Z,-0.36
2019-01-31T01:08:48.813Z,-0.23
2019-01-31T01:09:49.326Z,-0.21
2019-01-31T01:10:50.149Z,-0.24
2019-01-31T01:11:50.949Z,-0.28
2019-01-31T01:12:51.083Z,-0.24
2019-01-31T01:13:52.496Z,-0.13
2019-01-31T01:14:52.911Z,-0.1
2019-01-31T01:15:53.703Z,-0.12
2019-01-31T01:16:54.385Z,-0.2
2019-01-31T01:17:55.608Z,-0.15
2019-01-31T01:18:56.013Z,-0.13
2019-01-31T01:19:56.192Z,-0.03
2019-01-31T01:20:57.292Z,0
2019-01-31T01:21:57.696Z,-0.03
2019-01-31T01:22:58.478Z,-0.05
2019-01-31T01:23:59.162Z,0.05
2019-01-31T01:24:59.566Z,0.02
2019-01-31T01:26:00.972Z,0.06
2019-01-31T01:27:01.098Z,-0.05
2019-01-31T01:28:02.783Z,0.06
2019-01-31T01:29:03.518Z,-0.05
2019-01-31T01:30:04.762Z,0.05
2019-01-31T01:31:05.329Z,0.13
2019-01-31T01:32:06.735Z,0.13
2019-01-31T01:33:06.856Z,0.11
2019-01-31T01:34:08.260Z,0.06
2019-01-31T01:35:08.940Z,0.06
2019-01-31T01:36:09.640Z,0.16
2019-01-31T01:37:11.053Z,0.11
2019-01-31T01:38:11.276Z,0.16
2019-01-31T01:39:23.525Z,0.16
2019-01-31T01:40:24.478Z,0.11
2019-01-31T01:41:25.160Z,0.12
2019-01-31T01:42:25.841Z,0.2
2019-01-31T01:43:26.249Z,0.24
2019-01-31T01:44:27.930Z,0.19
2019-01-31T01:45:28.054Z,0.16
2019-01-31T01:46:29.495Z,0.18
2019-01-31T01:47:30.448Z,0.24
2019-01-31T01:48:31.131Z,0.18
2019-01-31T01:49:31.539Z,0.16
2019-01-31T01:50:32.626Z,0.16
2019-01-31T01:51:32.755Z,0.19
2019-01-31T01:52:33.157Z,0.23
2019-01-31T01:53:34.562Z,0.24
2019-01-31T01:54:35.686Z,0.27
2019-01-31T01:55:37.367Z,0.19
2019-01-31T01:56:38.161Z,0.29
2019-01-31T01:57:38.564Z,0.24
2019-01-31T01:58:40.248Z,0.19
2019-01-31T01:59:41.225Z,0.2
2019-01-31T02:00:42.315Z,0.15
2019-01-31T02:01:43.544Z,0.11
2019-01-31T02:02:43.946Z,0.05
2019-01-31T02:03:44.073Z,0.01
2019-01-31T02:04:44.550Z,-0.15
2019-01-31T02:05:45.990Z,-0.1
2019-01-31T02:06:46.388Z,-0.24
2019-01-31T02:07:47.515Z,-0.24
2019-01-31T02:08:48.641Z,-0.13
2019-01-31T02:09:49.046Z,-0.21
2019-01-31T02:10:49.696Z,-0.26
2019-01-31T02:11:50.377Z,-0.21
2019-01-31T02:12:50.781Z,-0.21
2019-01-31T02:13:52.019Z,-0.2
2019-01-31T02:14:52.422Z,-0.28
2019-01-31T02:15:52.923Z,-0.27
2019-01-31T02:16:53.332Z,-0.24
2019-01-31T02:17:53.459Z,-0.18
2019-01-31T02:18:53.863Z,-0.26
2019-01-31T02:19:54.268Z,-0.27
2019-01-31T02:20:55.028Z,-0.38
2019-01-31T02:21:55.434Z,-0.38
2019-01-31T02:22:55.840Z,-0.24
2019-01-31T02:23:56.798Z,-0.27
2019-01-31T02:24:57.927Z,-0.18
2019-01-31T02:25:58.333Z,-0.28
2019-01-31T02:26:59.298Z,-0.31
2019-01-31T02:27:59.704Z,-0.39
2019-01-31T02:29:00.112Z,-0.45
2019-01-31T02:30:00.948Z,-0.41
2019-01-31T02:31:01.636Z,-0.39
2019-01-31T02:32:02.438Z,-0.45
2019-01-31T02:33:03.591Z,-0.44
2019-01-31T02:34:04.001Z,-0.31
2019-01-31T02:35:04.415Z,-0.28
2019-01-31T02:36:06.377Z,-0.21
2019-01-31T02:37:07.069Z,-0.2
2019-01-31T02:38:07.485Z,-0.24
2019-01-31T02:39:07.893Z,-0.21
2019-01-31T02:40:09.459Z,-0.2
2019-01-31T02:41:09.995Z,-0.24
2019-01-31T02:42:10.675Z,-0.3
2019-01-31T02:43:11.382Z,-0.18
2019-01-31T02:44:12.425Z,-0.1
2019-01-31T02:45:13.943Z,-0.1
2019-01-31T02:46:13.627Z,-0.1
2019-01-31T02:47:14.754Z,-0.05
2019-01-31T02:48:15.995Z,-0.05
2019-01-31T02:49:17.230Z,-0.15
2019-01-31T02:50:18.468Z,-0.13
2019-01-31T02:51:20.107Z,-0.18
2019-01-31T02:52:20.591Z,-0.12
2019-01-31T02:53:21.998Z,-0.15
2019-01-31T02:54:22.550Z,-0.1
2019-01-31T02:55:22.676Z,-0.12
2019-01-31T02:56:26.718Z,-0.12
2019-01-31T02:57:23.753Z,-0.12
2019-01-31T02:58:24.059Z,-0.17
2019-01-31T02:59:25.361Z,-0.28
2019-01-31T03:00:25.656Z,-0.23
2019-01-31T03:01:26.198Z,-0.17
2019-01-31T03:02:26.734Z,-0.21
2019-01-31T03:03:27.414Z,-0.24
2019-01-31T03:04:28.656Z,-0.2
2019-01-31T03:05:29.064Z,-0.26
2019-01-31T03:06:30.468Z,-0.26
2019-01-31T03:07:30.597Z,-0.21
2019-01-31T03:08:31.554Z,-0.2
2019-01-31T03:09:32.321Z,-0.21
2019-01-31T03:10:33.279Z,-0.23
2019-01-31T03:11:33.681Z,-0.26
2019-01-31T03:12:34.083Z,-0.24
2019-01-31T03:13:34.796Z,-0.24
2019-01-31T03:14:35.755Z,-0.21
2019-01-31T03:15:35.726Z,-0.23
2019-01-31T03:16:37.410Z,-0.26
2019-01-31T03:17:38.383Z,-0.24
2019-01-31T03:18:38.793Z,-0.2
2019-01-31T03:19:39.569Z,-0.26
2019-01-31T03:20:40.265Z,-0.2
2019-01-31T03:21:41.215Z,-0.24
2019-01-31T03:22:41.728Z,-0.26
2019-01-31T03:23:41.986Z,-0.2
2019-01-31T03:24:42.669Z,-0.26
2019-01-31T03:25:43.646Z,-0.24
2019-01-31T03:26:44.049Z,-0.23
2019-01-31T03:27:45.453Z,-0.21
2019-01-31T03:28:46.698Z,-0.23
2019-01-31T03:29:47.518Z,-0.26
2019-01-31T03:30:48.762Z,-0.21
2019-01-31T03:31:49.913Z,-0.28
2019-01-31T03:32:50.727Z,-0.28
2019-01-31T03:33:51.519Z,-0.23
2019-01-31T03:34:51.649Z,-0.21
2019-01-31T03:35:52.329Z,-0.09
2019-01-31T03:36:52.738Z,-0.06
2019-01-31T03:37:52.977Z,-0.13
2019-01-31T03:38:53.743Z,-0.26
2019-01-31T03:40:08.157Z,-0.12
2019-01-31T03:41:07.559Z,-0.15
2019-01-31T03:42:08.373Z,-0.05
2019-01-31T03:43:09.084Z,-0.15
2019-01-31T03:44:10.175Z,0.01
2019-01-31T03:45:10.865Z,0.01
2019-01-31T03:46:12.107Z,-0.09
2019-01-31T03:47:12.064Z,-0.12
2019-01-31T03:48:13.029Z,-0.17
2019-01-31T03:49:13.747Z,-0.28
2019-01-31T03:50:14.157Z,-0.41
2019-01-31T03:51:14.545Z,-0.41
2019-01-31T03:52:15.504Z,-0.46
2019-01-31T03:53:16.672Z,-0.46
2019-01-31T03:54:16.923Z,-0.45
2019-01-31T03:55:17.617Z,-0.51
2019-01-31T03:56:18.588Z,-0.42
2019-01-31T03:57:19.214Z,-0.49
2019-01-31T03:58:20.171Z,-0.39
2019-01-31T03:59:21.163Z,-0.36
2019-01-31T04:00:22.134Z,-0.38
2019-01-31T04:01:22.772Z,-0.42
2019-01-31T04:02:22.904Z,-0.36
2019-01-31T04:03:23.422Z,-0.28
2019-01-31T04:04:24.125Z,-0.35
2019-01-31T04:05:25.099Z,-0.42
2019-01-31T04:06:25.060Z,-0.33
2019-01-31T04:07:26.463Z,-0.41
2019-01-31T04:08:27.435Z,-0.41
2019-01-31T04:09:27.673Z,-0.48
2019-01-31T04:10:28.081Z,-0.49
2019-01-31T04:11:28.662Z,-0.54
2019-01-31T04:12:29.631Z,-0.59
2019-01-31T04:13:29.761Z,-0.63
2019-01-31T04:14:30.444Z,-0.6
2019-01-31T04:15:31.155Z,-0.64
2019-01-31T04:16:32.124Z,-0.64
2019-01-31T04:17:32.818Z,-0.59
2019-01-31T04:18:33.825Z,-0.57
2019-01-31T04:19:33.809Z,-0.6
2019-01-31T04:20:34.782Z,-0.67
2019-01-31T04:21:35.886Z,-0.62
2019-01-31T04:22:36.032Z,-0.54
2019-01-31T04:23:37.444Z,-0.6
2019-01-31T04:24:37.954Z,-0.57
2019-01-31T04:25:38.642Z,-0.53
2019-01-31T04:26:39.338Z,-0.56
2019-01-31T04:27:40.030Z,-0.53
2019-01-31T04:28:41.711Z,-0.48
2019-01-31T04:29:41.953Z,-0.48
2019-01-31T04:30:42.464Z,-0.44
2019-01-31T04:31:43.605Z,-0.45
2019-01-31T04:32:44.017Z,-0.36
2019-01-31T04:33:44.708Z,-0.41
2019-01-31T04:34:46.012Z,-0.39
2019-01-31T04:35:46.530Z,-0.38
2019-01-31T04:36:47.089Z,-0.33
2019-01-31T04:37:47.377Z,-0.35
2019-01-31T04:38:48.502Z,-0.36
2019-01-31T04:39:48.932Z,-0.42
2019-01-31T04:40:50.043Z,-0.38
2019-01-31T04:41:50.147Z,-0.46
2019-01-31T04:42:50.828Z,-0.53
2019-01-31T04:43:51.814Z,-0.53
2019-01-31T04:44:52.783Z,-0.53
2019-01-31T04:45:53.468Z,-0.49
2019-01-31T04:46:53.892Z,-0.51
2019-01-31T04:47:57.546Z,-0.6
2019-01-31T04:48:58.360Z,-0.56
2019-01-31T04:49:59.605Z,-0.66
2019-01-31T04:50:59.471Z,-0.64
2019-01-31T04:52:00.591Z,-0.67
2019-01-31T04:53:01.892Z,-0.6
2019-01-31T04:54:02.029Z,-0.69
2019-01-31T04:55:03.822Z,-0.64
2019-01-31T04:56:03.567Z,-0.51
2019-01-31T04:57:04.853Z,-0.64
2019-01-31T04:58:06.087Z,-0.62
2019-01-31T04:59:06.781Z,-0.74
2019-01-31T05:00:08.023Z,-0.66
2019-01-31T05:01:08.480Z,-0.74
2019-01-31T05:02:09.289Z,-0.67
2019-01-31T05:03:09.754Z,-0.74
2019-01-31T05:04:10.719Z,-0.72
2019-01-31T05:05:11.705Z,-0.69
2019-01-31T05:06:12.399Z,-0.7
2019-01-31T05:07:13.638Z,-0.66
2019-01-31T05:08:14.341Z,-0.69
2019-01-31T05:09:15.675Z,-0.66
2019-01-31T05:10:16.942Z,-0.69
2019-01-31T05:11:17.676Z,-0.69
2019-01-31T05:12:18.805Z,-0.7
2019-01-31T05:13:20.205Z,-0.66
2019-01-31T05:14:21.052Z,-0.62
2019-01-31T05:15:21.742Z,-0.49
2019-01-31T05:16:22.423Z,-0.45
2019-01-31T05:17:23.388Z,-0.49
2019-01-31T05:18:23.796Z,-0.48
2019-01-31T05:19:25.035Z,-0.46
2019-01-31T05:20:26.024Z,-0.54
2019-01-31T05:21:27.153Z,-0.45
2019-01-31T05:22:28.796Z,-0.48
2019-01-31T05:23:29.479Z,-0.51
2019-01-31T05:24:30.724Z,-0.44
2019-01-31T05:25:31.690Z,-0.39
2019-01-31T05:26:31.369Z,-0.42
2019-01-31T05:27:32.331Z,-0.54
2019-01-31T05:28:32.295Z,-0.62
2019-01-31T05:29:33.015Z,-0.72
2019-01-31T05:30:33.706Z,-0.64
2019-01-31T05:31:34.399Z,-0.69
2019-01-31T05:32:35.216Z,-0.64
2019-01-31T05:33:35.460Z,-0.7
2019-01-31T05:34:36.574Z,-0.6
2019-01-31T05:35:37.540Z,-0.81
2019-01-31T05:36:38.077Z,-0.63
2019-01-31T05:37:39.047Z,-0.63
2019-01-31T05:38:40.697Z,-0.6
2019-01-31T05:39:40.102Z,-0.74
2019-01-31T05:40:41.074Z,-0.72
2019-01-31T05:41:41.490Z,-0.77
2019-01-31T05:42:42.302Z,-0.91
2019-01-31T05:43:42.828Z,-0.81
2019-01-31T05:44:43.514Z,-0.87
2019-01-31T05:45:43.918Z,-0.97
2019-01-31T05:46:44.323Z,-0.94
2019-01-31T05:47:45.387Z,-0.94
2019-01-31T05:48:45.640Z,-0.91
2019-01-31T05:49:46.319Z,-0.96
2019-01-31T05:50:47.559Z,-0.97
2019-01-31T05:51:48.527Z,-0.96
2019-01-31T05:52:49.465Z,-0.93
2019-01-31T05:53:49.704Z,-0.96
2019-01-31T05:54:50.389Z,-0.89
2019-01-31T05:55:51.794Z,-0.93
2019-01-31T05:56:51.926Z,-0.8
2019-01-31T05:57:52.887Z,-0.84
2019-01-31T05:58:53.697Z,-0.81
2019-01-31T05:59:53.663Z,-0.77
2019-01-31T06:00:54.349Z,-0.74
2019-01-31T06:01:54.892Z,-0.97
2019-01-31T06:02:54.996Z,-0.81
2019-01-31T06:03:55.864Z,-0.8
2019-01-31T06:04:55.996Z,-0.8
2019-01-31T06:05:56.409Z,-0.81
2019-01-31T06:06:56.815Z,-0.87
2019-01-31T06:07:58.501Z,-0.91
2019-01-31T06:08:59.182Z,-0.97
2019-01-31T06:10:00.654Z,-1.04
2019-01-31T06:11:14.472Z,-1.03
2019-01-31T06:12:14.430Z,-1.09
2019-01-31T06:13:14.873Z,-1.11
2019-01-31T06:14:15.277Z,-1.07
2019-01-31T06:15:16.249Z,-1.22
2019-01-31T06:16:17.798Z,-1.15
2019-01-31T06:17:17.480Z,-1.29
2019-01-31T06:18:18.162Z,-1.36
2019-01-31T06:19:19.266Z,-1.46
2019-01-31T06:20:19.675Z,-1.56
2019-01-31T06:21:20.082Z,-1.6
2019-01-31T06:22:21.444Z,-1.63
2019-01-31T06:23:22.049Z,-1.68
2019-01-31T06:24:24.021Z,-1.6
2019-01-31T06:25:24.591Z,-1.6
2019-01-31T06:26:24.831Z,-1.54
2019-01-31T06:27:25.239Z,-1.54
2019-01-31T06:28:26.521Z,-1.56
2019-01-31T06:29:26.923Z,-1.54
2019-01-31T06:30:28.053Z,-1.63
2019-01-31T06:31:29.879Z,-1.6
2019-01-31T06:32:29.655Z,-1.63
2019-01-31T06:33:30.961Z,-1.61
2019-01-31T06:34:31.681Z,-1.51
2019-01-31T06:35:33.027Z,-1.48
2019-01-31T06:36:33.991Z,-1.42
2019-01-31T06:37:34.673Z,-1.4
2019-01-31T06:38:36.079Z,-1.42
2019-01-31T06:39:36.334Z,-1.54
2019-01-31T06:40:36.741Z,-1.48
2019-01-31T06:41:37.430Z,-1.6
2019-01-31T06:42:38.248Z,-1.58
2019-01-31T06:43:38.653Z,-1.81
2019-01-31T06:44:39.063Z,-1.72
2019-01-31T06:45:39.589Z,-1.79
2019-01-31T06:46:41.007Z,-1.78
2019-01-31T06:47:41.794Z,-1.72
2019-01-31T06:48:43.200Z,-1.87
2019-01-31T06:49:44.169Z,-2.02
2019-01-31T06:50:45.152Z,-2
2019-01-31T06:51:45.637Z,-1.99
2019-01-31T06:52:46.728Z,-2
2019-01-31T06:53:46.977Z,-2.05
2019-01-31T06:54:47.397Z,-2.08
2019-01-31T06:55:47.656Z,-1.99
2019-01-31T06:56:48.621Z,-1.97
2019-01-31T06:57:49.158Z,-2.04
2019-01-31T06:58:50.858Z,-1.89
2019-01-31T06:59:51.435Z,-1.87
2019-01-31T07:00:51.570Z,-1.82
2019-01-31T07:01:51.999Z,-1.75
2019-01-31T07:02:53.145Z,-1.81
2019-01-31T07:03:53.562Z,-1.75
2019-01-31T07:04:54.073Z,-1.68
2019-01-31T07:05:55.029Z,-1.63
2019-01-31T07:06:55.716Z,-1.53
2019-01-31T07:07:56.848Z,-1.43
2019-01-31T07:08:59.277Z,-1.38
2019-01-31T07:09:58.830Z,-1.39
2019-01-31T07:10:59.604Z,-1.36
2019-01-31T07:12:02.339Z,-1.27
2019-01-31T07:13:02.380Z,-1.33
2019-01-31T07:14:02.569Z,-1.32
2019-01-31T07:15:03.540Z,-1.07
2019-01-31T07:16:04.228Z,-1.19
2019-01-31T07:17:04.923Z,-1.11
2019-01-31T07:18:05.889Z,-1.07
2019-01-31T07:19:08.231Z,-1
2019-01-31T07:20:07.905Z,-0.97
2019-01-31T07:21:08.878Z,-1.03
2019-01-31T07:22:09.288Z,-0.94
2019-01-31T07:23:10.781Z,-0.97
2019-01-31T07:24:11.476Z,-0.74
2019-01-31T07:25:12.449Z,-0.63
2019-01-31T07:26:13.020Z,-0.53
2019-01-31T07:27:13.708Z,-0.46
2019-01-31T07:28:14.621Z,-0.42
2019-01-31T07:29:15.261Z,-0.46
2019-01-31T07:30:15.784Z,-0.57
2019-01-31T07:31:16.481Z,-0.64
2019-01-31T07:32:17.183Z,-0.69
2019-01-31T07:33:18.219Z,-0.66
2019-01-31T07:34:18.911Z,-0.64
2019-01-31T07:35:19.707Z,-0.74
2019-01-31T07:36:20.723Z,-0.93
2019-01-31T07:37:21.714Z,-0.96
2019-01-31T07:38:22.298Z,-0.91
2019-01-31T07:39:22.713Z,-0.84
2019-01-31T07:40:23.234Z,-0.64
2019-01-31T07:41:24.744Z,-0.15
2019-01-31T07:42:25.154Z,0.15
2019-01-31T07:43:29.576Z,0.48
2019-01-31T07:44:27.088Z,0.61
2019-01-31T07:45:27.912Z,0.94
2019-01-31T07:46:28.327Z,1.45
2019-01-31T07:47:29.301Z,1.89
2019-01-31T07:48:29.713Z,2.4
2019-01-31T07:49:30.511Z,2.7
2019-01-31T07:50:31.202Z,3.08
2019-01-31T07:51:31.918Z,3.31
2019-01-31T07:52:32.333Z,3.73
2019-01-31T07:53:33.452Z,3.92
2019-01-31T07:54:34.586Z,4.48
2019-01-31T07:55:35.830Z,4.89
2019-01-31T07:56:36.521Z,5.43
2019-01-31T07:57:37.870Z,5.84
2019-01-31T07:58:44.811Z,6.34
2019-01-31T07:58:50.650Z,6.31
2019-01-31T07:59:51.747Z,6.38
2019-01-31T08:00:53.924Z,6.68
2019-01-31T08:01:53.337Z,6.77
2019-01-31T08:02:54.757Z,7.04
2019-01-31T08:04:07.540Z,7.14
2019-01-31T08:05:08.097Z,7.15
2019-01-31T08:06:09.518Z,7.37
2019-01-31T08:07:09.934Z,7.23
2019-01-31T08:08:11.198Z,7.55
2019-01-31T08:09:11.623Z,7.81
2019-01-31T08:10:12.604Z,7.9
2019-01-31T08:11:13.588Z,8.16
2019-01-31T08:12:14.005Z,8.14
2019-01-31T08:13:14.425Z,8.26
2019-01-31T08:14:15.581Z,8.36
2019-01-31T08:15:16.148Z,8.39
2019-01-31T08:16:16.852Z,8.92
2019-01-31T08:17:17.551Z,9.22
2019-01-31T08:18:18.257Z,9.7
2019-01-31T08:19:18.958Z,9.94
2019-01-31T08:20:20.380Z,9.84
2019-01-31T08:21:23.646Z,9.94
2019-01-31T08:22:24.951Z,9.62
2019-01-31T08:23:25.377Z,9.82
2019-01-31T08:24:25.805Z,10.07
2019-01-31T08:25:26.417Z,10.1
2019-01-31T08:26:31.089Z,10.39
2019-01-31T08:26:42.073Z,10.21
2019-01-31T08:27:42.880Z,9.95
2019-01-31T08:28:42.417Z,9.87
2019-01-31T08:29:42.860Z,9.74
2019-01-31T08:30:44.288Z,9.29
2019-01-31T08:31:44.427Z,8.68
2019-01-31T08:32:45.122Z,8.06
2019-01-31T08:33:50.391Z,7.59
2019-01-31T08:33:58.455Z,7.46
2019-01-31T08:34:58.919Z,6.47
2019-01-31T08:35:59.436Z,5.73
2019-01-31T08:36:59.851Z,5.02
2019-01-31T08:38:00.278Z,4.68
2019-01-31T08:39:00.882Z,4.53
2019-01-31T08:40:01.586Z,4.53
2019-01-31T08:41:02.432Z,4.39
2019-01-31T08:42:04.846Z,4.27
2019-01-31T08:43:06.150Z,4.28
2019-01-31T08:44:07.129Z,4.34
2019-01-31T08:45:07.807Z,4.32
2019-01-31T08:46:08.224Z,4.28
2019-01-31T08:47:08.639Z,4.58
2019-01-31T08:48:09.613Z,4.7
2019-01-31T08:49:11.160Z,5.2
2019-01-31T08:50:11.409Z,5.44
2019-01-31T08:51:11.824Z,5.41
2019-01-31T08:52:12.935Z,5.44
2019-01-31T08:53:13.359Z,5.59
2019-01-31T08:54:13.777Z,5.4
2019-01-31T08:55:14.622Z,5.31
2019-01-31T08:56:15.600Z,5.52
2019-01-31T08:57:16.399Z,5.67
2019-01-31T08:58:16.843Z,5.31
2019-01-31T08:59:18.340Z,4.94
2019-01-31T09:00:20.679Z,4.76
2019-01-31T09:01:19.130Z,4.52
2019-01-31T09:02:20.823Z,4.21
2019-01-31T09:03:21.236Z,3.94
2019-01-31T09:04:22.934Z,3.88
2019-01-31T09:05:23.285Z,3.49
2019-01-31T09:06:24.261Z,3.49
2019-01-31T09:07:24.407Z,3.31
2019-01-31T09:08:24.870Z,3.43
2019-01-31T09:09:25.844Z,3.59
2019-01-31T09:10:26.981Z,3.71
2019-01-31T09:11:27.806Z,3.7
2019-01-31T09:12:28.273Z,3.71
2019-01-31T09:13:29.517Z,3.82
2019-01-31T09:14:30.047Z,3.94
2019-01-31T09:15:31.464Z,3.96
2019-01-31T09:16:33.333Z,3.89
2019-01-31T09:17:32.469Z,3.82
2019-01-31T09:18:32.882Z,3.86
2019-01-31T09:19:34.016Z,3.86
2019-01-31T09:20:35.149Z,3.92
2019-01-31T09:21:35.561Z,3.95
2019-01-31T09:22:36.982Z,4.24
2019-01-31T09:23:37.260Z,4.45
2019-01-31T09:24:37.774Z,4.52
2019-01-31T09:25:38.056Z,4.66
2019-01-31T09:26:38.552Z,4.68
2019-01-31T09:27:39.241Z,4.7
2019-01-31T09:28:39.654Z,4.83
2019-01-31T09:29:40.796Z,4.75
2019-01-31T09:30:41.766Z,4.76
2019-01-31T09:31:41.905Z,4.94
2019-01-31T09:32:43.607Z,4.9
2019-01-31T09:33:43.581Z,4.79
2019-01-31T09:34:44.077Z,4.95
2019-01-31T09:35:45.767Z,5.16
2019-01-31T09:36:45.460Z,5.43
2019-01-31T09:37:47.260Z,5.56
2019-01-31T09:38:48.506Z,5.88
2019-01-31T09:39:49.498Z,5.91
2019-01-31T09:40:51.123Z,6.15
2019-01-31T09:41:51.365Z,6.19
2019-01-31T09:42:51.782Z,6.44
2019-01-31T09:43:51.874Z,6.71
2019-01-31T09:44:53.291Z,6.74
2019-01-31T09:45:53.656Z,6.6
2019-01-31T09:46:54.629Z,6.75
2019-01-31T09:47:55.607Z,6.75
2019-01-31T09:48:56.532Z,6.68
2019-01-31T09:49:57.501Z,6.72
2019-01-31T09:50:57.935Z,6.8
2019-01-31T09:51:58.630Z,7.05
2019-01-31T09:52:59.603Z,7.44
2019-01-31T09:54:00.578Z,7.75
2019-01-31T09:55:01.127Z,7.85
2019-01-31T09:56:01.971Z,7.83
2019-01-31T09:57:02.969Z,7.72
2019-01-31T09:58:03.469Z,7.75
2019-01-31T09:59:03.889Z,7.8
2019-01-31T10:00:04.739Z,7.9
2019-01-31T10:01:05.155Z,7.88
2019-01-31T10:02:06.569Z,8.08
2019-01-31T10:03:07.707Z,8.08
2019-01-31T10:04:08.507Z,8.05
2019-01-31T10:05:09.203Z,8.16
2019-01-31T10:06:10.449Z,8.21
2019-01-31T10:07:11.154Z,8.31
2019-01-31T10:08:11.410Z,8.38
2019-01-31T10:09:12.136Z,8.56
2019-01-31T10:10:13.675Z,8.56
2019-01-31T10:11:14.533Z,8.16
2019-01-31T10:12:14.650Z,8.16
2019-01-31T10:13:15.850Z,8.23
2019-01-31T10:14:16.355Z,8.44
2019-01-31T10:15:17.334Z,8.59
2019-01-31T10:16:17.973Z,8.32
2019-01-31T10:17:18.622Z,8.14
2019-01-31T10:18:18.798Z,8.18
2019-01-31T10:19:20.001Z,8.34
2019-01-31T10:20:21.835Z,8.02
2019-01-31T10:21:22.407Z,7.91
2019-01-31T10:22:24.029Z,7.87
2019-01-31T10:23:24.946Z,7.67
2019-01-31T10:24:25.560Z,7.88
2019-01-31T10:25:26.545Z,7.95
2019-01-31T10:26:26.333Z,7.93
2019-01-31T10:27:27.482Z,7.93
2019-01-31T10:28:28.578Z,8.26
2019-01-31T10:29:28.550Z,8.61
2019-01-31T10:30:30.591Z,9.02
2019-01-31T10:31:30.672Z,9.21
2019-01-31T10:32:31.098Z,9.55
2019-01-31T10:33:31.626Z,9.9
2019-01-31T10:34:33.041Z,9.9
2019-01-31T10:35:34.050Z,10.09
2019-01-31T10:36:34.758Z,9.85
2019-01-31T10:37:35.453Z,9.84
2019-01-31T10:38:35.883Z,10.27
2019-01-31T10:39:36.668Z,10.55
2019-01-31T10:40:37.087Z,10.92
2019-01-31T10:41:38.238Z,11.1
2019-01-31T10:42:54.378Z,11.26
2019-01-31T10:43:56.359Z,11.12
2019-01-31T10:44:06.145Z,11.18
2019-01-31T10:45:05.856Z,10.82
2019-01-31T10:46:05.983Z,10.86
2019-01-31T10:47:07.399Z,10.86
2019-01-31T10:48:07.548Z,10.97
2019-01-31T10:49:08.254Z,11.05
2019-01-31T10:50:09.398Z,10.95
2019-01-31T10:51:09.994Z,10.83
2019-01-31T10:52:11.425Z,10.64
2019-01-31T10:53:11.853Z,10.31
2019-01-31T10:54:12.834Z,10.21
2019-01-31T10:55:13.102Z,10.25
2019-01-31T10:56:14.525Z,10.24
2019-01-31T10:57:14.952Z,10.23
2019-01-31T10:58:15.930Z,10.25
2019-01-31T10:59:16.505Z,10.17
2019-01-31T11:00:17.205Z,10.38
2019-01-31T11:01:17.628Z,10.64
2019-01-31T11:02:18.263Z,11
2019-01-31T11:03:18.976Z,11.26
2019-01-31T11:04:20.401Z,11.1
2019-01-31T11:05:21.056Z,10.89
2019-01-31T11:06:22.314Z,10.58
2019-01-31T11:07:23.015Z,10.42
2019-01-31T11:08:24.443Z,10.05
2019-01-31T11:09:25.147Z,9.87
2019-01-31T11:10:25.148Z,10.15
2019-01-31T11:11:25.575Z,10.33
2019-01-31T11:12:27.024Z,10.62
2019-01-31T11:13:28.563Z,10.84
2019-01-31T11:14:28.980Z,10.83
2019-01-31T11:15:29.211Z,10.92
2019-01-31T11:16:30.024Z,10.82
2019-01-31T11:17:31.001Z,10.9
2019-01-31T11:18:31.709Z,10.75
2019-01-31T11:19:32.078Z,10.68
2019-01-31T11:20:33.227Z,10.39
2019-01-31T11:21:33.676Z,9.95
2019-01-31T11:22:34.756Z,9.56
2019-01-31T11:23:35.493Z,9.13
2019-01-31T11:24:36.477Z,9.05
2019-01-31T11:25:37.031Z,9.02
2019-01-31T11:26:38.177Z,8.86
2019-01-31T11:27:39.894Z,8.72
2019-01-31T11:28:40.331Z,8.5
2019-01-31T11:29:41.366Z,8.44
2019-01-31T11:30:44.168Z,8.59
2019-01-31T11:31:44.737Z,8.38
2019-01-31T11:32:45.741Z,8.17
2019-01-31T11:33:48.657Z,8.13
2019-01-31T11:34:48.194Z,8.16
2019-01-31T11:35:48.255Z,8.17
2019-01-31T11:36:48.400Z,8.03
2019-01-31T11:37:49.818Z,8.08
2019-01-31T11:38:50.984Z,8.31
2019-01-31T11:39:51.643Z,8.42
2019-01-31T11:40:53.668Z,8.56
2019-01-31T11:41:55.810Z,8.74
2019-01-31T11:42:56.148Z,8.77
2019-01-31T11:43:59.089Z,9
2019-01-31T11:44:09.426Z,9.08
2019-01-31T11:44:20.983Z,9
2019-01-31T11:45:20.702Z,9.29
2019-01-31T11:46:21.692Z,9.37
2019-01-31T11:47:21.837Z,9.29
2019-01-31T11:48:23.608Z,9.24
2019-01-31T11:49:23.795Z,9
2019-01-31T11:50:26.185Z,8.72
2019-01-31T11:51:26.430Z,8.38
2019-01-31T11:52:27.657Z,8.26
2019-01-31T11:53:28.442Z,8.26
2019-01-31T11:54:29.344Z,8.16
2019-01-31T11:55:29.738Z,7.88
2019-01-31T11:56:30.440Z,7.69
2019-01-31T11:57:31.185Z,7.61
2019-01-31T11:58:31.916Z,7.44
2019-01-31T11:59:33.002Z,7.36
2019-01-31T12:00:33.702Z,7.4
2019-01-31T12:01:34.741Z,7.43
2019-01-31T12:02:35.163Z,7.26
2019-01-31T12:03:35.594Z,7.03
2019-01-31T12:04:36.049Z,6.82
2019-01-31T12:05:37.965Z,7.01
2019-01-31T12:06:37.515Z,7.37
2019-01-31T12:07:37.775Z,7.31
2019-01-31T12:08:38.753Z,7.55
2019-01-31T12:09:43.438Z,7.69
2019-01-31T12:09:55.608Z,7.64
2019-01-31T12:10:07.976Z,7.67
2019-01-31T12:10:18.405Z,7.62
2019-01-31T12:11:18.226Z,7.95
2019-01-31T12:12:19.198Z,8.05
2019-01-31T12:13:24.696Z,8.08
2019-01-31T12:13:31.287Z,8.06
2019-01-31T12:14:32.131Z,7.91
2019-01-31T12:15:32.824Z,7.7
2019-01-31T12:16:33.678Z,7.41
2019-01-31T12:17:33.882Z,7.39
2019-01-31T12:18:34.253Z,7.13
2019-01-31T12:19:34.872Z,7.23
2019-01-31T12:20:35.433Z,7.25
2019-01-31T12:21:36.857Z,7.21
2019-01-31T12:22:39.589Z,7.05
2019-01-31T12:23:39.019Z,6.82
2019-01-31T12:24:39.966Z,6.78
2019-01-31T12:25:40.949Z,6.77
2019-01-31T12:26:41.369Z,6.77
2019-01-31T12:27:42.707Z,6.68
2019-01-31T12:28:43.688Z,6.9
2019-01-31T12:29:44.386Z,6.82
2019-01-31T12:30:48.470Z,6.9
2019-01-31T12:31:00.741Z,6.95
2019-01-31T12:31:12.358Z,6.97
2019-01-31T12:31:25.364Z,6.96
2019-01-31T12:31:34.662Z,6.93
2019-01-31T12:32:35.089Z,7.01
2019-01-31T12:33:40.568Z,7.04
2019-01-31T12:33:47.693Z,7.11
2019-01-31T12:34:48.261Z,7.1
2019-01-31T12:35:48.961Z,7
2019-01-31T12:36:50.657Z,7.03
2019-01-31T12:37:51.083Z,7.21
2019-01-31T12:38:55.492Z,7.18
2019-01-31T12:39:53.183Z,7.22
2019-01-31T12:40:54.604Z,7.19
2019-01-31T12:41:54.745Z,7.23
2019-01-31T12:42:54.939Z,7.21
2019-01-31T12:43:56.468Z,7.26
2019-01-31T12:44:57.015Z,7.04
2019-01-31T12:45:57.713Z,7.19
2019-01-31T12:46:58.137Z,7.04
2019-01-31T12:47:58.561Z,7.18
2019-01-31T12:48:59.982Z,7.11
2019-01-31T12:50:00.851Z,7.25
2019-01-31T12:51:02.476Z,7.26
2019-01-31T12:52:05.431Z,7.18
2019-01-31T12:53:05.857Z,7.21
2019-01-31T12:54:06.666Z,7.18
2019-01-31T12:55:07.498Z,6.97
2019-01-31T12:56:08.231Z,6.89
2019-01-31T12:57:09.242Z,7.03
2019-01-31T12:58:09.392Z,7.08
2019-01-31T12:59:10.111Z,6.97
2019-01-31T13:00:11.535Z,6.97
2019-01-31T13:01:13.467Z,7.05
2019-01-31T13:02:13.074Z,7.07
2019-01-31T13:03:13.766Z,7.14
2019-01-31T13:04:14.466Z,7.08
2019-01-31T13:05:15.825Z,7.07
2019-01-31T13:06:17.241Z,7.15
2019-01-31T13:07:18.505Z,7.15